Rickmers New Orleans — V7FF2 — position and weather

sailwx.info

Track history (hours):
 
Tides and Currents Weather Stations Pressure Air Temp Water Temp Dewpoint Dewpoint Depression Visibility Wind Speed Wind Dir Waves Ship Positions

Rickmers New Orleans

Last reported at 2015-Jun-22 17:00 UTC. Time now 2015-Jul-05 09:28 UTC.
Position N 23°36' W 112°12'.
Warning: this ship's position is 12 days out of date.

Length 192.9 m; beam 27.8 m; draft 11.2 m.

Type: Ship (hazmat cat A). MMSI: 538001922.

Wind from 360 at 7 knots

Barometer 1015.0 mb
Air temperature 22.0 ° C
Visibility: greater than 10.8 NM
Water temperature 22.0 ° C

Date/timePositionNaut miles runAvg speedWind from/ knotsBaromVisibWave heightAir tempDewpointWater temp
2015-Jun-22 17:00N 23°36' W 112°12'40217.5 360 / 71015.010.8 22.0 22.0
2015-Jun-21 18:00N 29°12' W 116°18'13217.6 270 / 51015.0 5.4 18.0 18.0
2015-Jun-21 10:29N 31°16' W 117°13'1717.0
2015-Jun-21 09:31N 31°31' W 117°19'1617.1
2015-Jun-21 08:33N 31°46' W 117°26'1716.8
2015-Jun-21 07:33N 32°02' W 117°33'1514.8
2015-Jun-21 06:33N 32°16' W 117°39'9 9.5
2015-Jun-21 05:34N 32°25' W 117°43'1110.6
2015-Jun-21 04:34N 32°35' W 117°47'1515.2
2015-Jun-21 03:33N 32°49' W 117°54'1514.8
2015-Jun-21 02:33N 33°02' W 118°01'1212.4
2015-Jun-21 01:33N 33°14' W 118°07'2 2.4
2015-Jun-21 00:33N 33°16' W 118°08'7 7.0
2015-Jun-20 23:34N 33°23' W 118°08'1211.6
2015-Jun-20 22:33N 33°34' W 118°13'10 9.7
2015-Jun-20 21:34N 33°43' W 118°16'3 2.5
2015-Jun-20 20:31N 33°46' W 118°16'0 0.0
2015-Jun-20 19:28N 33°46' W 118°16'0 0.0
2015-Jun-20 18:31N 33°46' W 118°16'0 0.0
2015-Jun-20 17:31N 33°46' W 118°16'0 0.0
2015-Jun-20 16:31N 33°46' W 118°16'0 0.0
2015-Jun-20 15:31N 33°46' W 118°16'0 0.0
2015-Jun-20 14:31N 33°46' W 118°16'0 0.0
2015-Jun-20 13:31N 33°46' W 118°16'0 0.0
2015-Jun-20 12:31N 33°46' W 118°16'0 0.0
2015-Jun-20 11:31N 33°46' W 118°16'0 0.0
2015-Jun-20 10:31N 33°46' W 118°16'0 0.0
2015-Jun-20 09:31N 33°46' W 118°16'0 0.0
2015-Jun-20 08:31N 33°46' W 118°16'0 0.0
2015-Jun-20 07:31N 33°46' W 118°16'0 0.0
2015-Jun-20 06:31N 33°46' W 118°16'0 0.0
2015-Jun-20 05:28N 33°46' W 118°16'0 0.0
2015-Jun-20 04:28N 33°46' W 118°16'0 0.0
2015-Jun-20 03:28N 33°46' W 118°16'0 0.0
2015-Jun-20 02:31N 33°46' W 118°16'0 0.0
2015-Jun-20 01:31N 33°46' W 118°16'0 0.0
2015-Jun-20 00:31N 33°46' W 118°16'0 0.0
2015-Jun-19 23:31N 33°46' W 118°16'0 0.0
2015-Jun-19 22:31N 33°46' W 118°16'0 0.0
2015-Jun-19 21:31N 33°46' W 118°16'0 0.0
2015-Jun-19 20:31N 33°46' W 118°16'0 0.0
2015-Jun-19 19:31N 33°46' W 118°16'0 0.0
2015-Jun-19 18:31N 33°46' W 118°16'0 0.0
2015-Jun-19 17:31N 33°46' W 118°16'0 0.0
2015-Jun-19 16:31N 33°46' W 118°16'0 0.0
2015-Jun-19 15:31N 33°46' W 118°16'0 0.0
2015-Jun-19 14:31N 33°46' W 118°16'0 0.0
2015-Jun-19 13:31N 33°46' W 118°16'0 0.0
2015-Jun-19 12:31N 33°46' W 118°16'0 0.0
2015-Jun-19 11:31N 33°46' W 118°16'0 0.0
2015-Jun-19 10:19N 33°46' W 118°16'0 0.0
2015-Jun-19 09:28N 33°46' W 118°16'0 0.0
2015-Jun-19 08:31N 33°46' W 118°16'0 0.0
2015-Jun-19 07:28N 33°46' W 118°16'0 0.0
2015-Jun-19 06:25N 33°46' W 118°16'0 0.0
2015-Jun-19 05:28N 33°46' W 118°16'0 0.0
2015-Jun-19 04:28N 33°46' W 118°16'0 0.0
2015-Jun-19 03:31N 33°46' W 118°16'0 0.0
2015-Jun-19 02:25N 33°46' W 118°16'0 0.0
2015-Jun-19 01:28N 33°46' W 118°16'0 0.0
2015-Jun-19 00:31N 33°46' W 118°16'0 0.0
2015-Jun-18 23:31N 33°46' W 118°16'0 0.0
2015-Jun-18 22:31N 33°46' W 118°16'1 0.8
2015-Jun-18 21:33N 33°45' W 118°16'6 5.7
2015-Jun-18 20:33N 33°40' W 118°14'5 5.2
2015-Jun-18 19:33N 33°36' W 118°10'6 5.8
2015-Jun-18 18:33N 33°30' W 118°07'6 6.0
2015-Jun-18 17:33N 33°25' W 118°05'6 6.2
2015-Jun-18 16:34N 33°19' W 118°02'7 6.5
2015-Jun-18 15:33N 33°13' W 118°06'1010.2
2015-Jun-18 14:34N 33°12' W 118°18'1110.7
2015-Jun-18 13:30N 33°11' W 118°32'1010.3
2015-Jun-18 12:31N 33°10' W 118°44'1313.7
2015-Jun-18 11:33N 33°09' W 118°60'1413.7
2015-Jun-18 10:33N 33°08' W 119°16'1413.7
2015-Jun-18 09:33N 33°07' W 119°32'1513.3
2015-Jun-18 08:25N 33°06' W 119°50'1213.3
2015-Jun-18 07:32N 33°05' W 120°04'1313.3
2015-Jun-18 06:33N 33°04' W 120°20'1313.5
2015-Jun-18 05:33N 33°03' W 120°36'1413.8
2015-Jun-18 04:33N 33°03' W 120°52'1413.9
2015-Jun-18 03:33N 33°04' W 121°09'1413.9
2015-Jun-18 02:34N 33°06' W 121°25'1312.9
2015-Jun-18 01:33N 33°03' W 121°40'1312.9
2015-Jun-18 00:33N 32°56' W 121°53'1312.8
2015-Jun-17 23:33N 32°49' W 122°06'1212.4
2015-Jun-17 22:33N 32°51' W 122°20'1514.6
2015-Jun-17 21:34N 32°59' W 122°35'1514.8
2015-Jun-17 20:34N 33°07' W 122°50'1514.8
2015-Jun-17 19:34N 33°15' W 123°05'1514.5
2015-Jun-17 18:33N 33°21' W 123°21'1515.1
2015-Jun-17 17:34N 33°26' W 123°37'1615.3
2015-Jun-17 16:32N 33°30' W 123°55'1515.2
2015-Jun-17 15:33N 33°35' W 124°12'1714.5
2015-Jun-17 14:24N 33°37' W 124°32'1214.6
2015-Jun-17 13:33N 33°36' W 124°47'1414.1
2015-Jun-17 12:34N 33°34' W 125°04'1413.8
2015-Jun-17 11:33N 33°32' W 125°20'1413.7
2015-Jun-17 10:33N 33°31' W 125°37'1413.5
2015-Jun-17 09:33N 33°29' W 125°53'1413.4
2015-Jun-17 08:31N 33°27' W 126°09'2613.3
2015-Jun-17 06:33N 33°25' W 126°41'1713.7
2015-Jun-17 05:18N 33°27' W 127°01'5712.0
2015-Jun-17 00:34N 33°32' W 128°09'7313.8
2015-Jun-16 19:15N 33°39' W 129°36'2414.0
2015-Jun-16 17:33N 33°41' W 130°05'1413.8
2015-Jun-16 16:33N 33°42' W 130°21'13213.9
2015-Jun-16 07:00N 33°54' W 133°00'10514.0 070 / 181021.010.8 1.017.0 18.0
2015-Jun-15 23:30N 34°04' W 135°06'6013.3
2015-Jun-15 19:00N 34°06' W 136°18'24412.8 070 / 151021.010.8 0.518.0 18.0
2015-Jun-15 00:00N 34°30' W 141°12'   090 / 171020.0 5.4 2.519.0 19.0
2015-Jun-12 18:00N 34°06' W 153°18'   080 / 121020.010.8 0.518.0 18.0
Track history (hours):
 
Tides and Currents Weather Stations Pressure Air Temp Water Temp Dewpoint Dewpoint Depression Visibility Wind Speed Wind Dir Waves Ship Positions

Rickmers New Orleans

Last reported at 2015-Jun-22 17:00 UTC. Time now 2015-Jul-05 09:28 UTC.
Position N 23°36' W 112°12'.
Warning: this ship's position is 12 days out of date.

Length 192.9 m; beam 27.8 m; draft 11.2 m.

Type: Ship (hazmat cat A). MMSI: 538001922.

Wind from 360 at 7 knots

Barometer 1015.0 mb
Air temperature 22.0 ° C
Visibility: greater than 10.8 NM
Water temperature 22.0 ° C

Date/timePositionNaut miles runAvg speedWind from/ knotsBaromVisibWave heightAir tempDewpointWater temp
2015-Jun-22 17:00N 23°36' W 112°12'40217.5 360 / 71015.010.8 22.0 22.0
2015-Jun-21 18:00N 29°12' W 116°18'13217.6 270 / 51015.0 5.4 18.0 18.0
2015-Jun-21 10:29N 31°16' W 117°13'1717.0
2015-Jun-21 09:31N 31°31' W 117°19'1617.1
2015-Jun-21 08:33N 31°46' W 117°26'1716.8
2015-Jun-21 07:33N 32°02' W 117°33'1514.8
2015-Jun-21 06:33N 32°16' W 117°39'9 9.5
2015-Jun-21 05:34N 32°25' W 117°43'1110.6
2015-Jun-21 04:34N 32°35' W 117°47'1515.2
2015-Jun-21 03:33N 32°49' W 117°54'1514.8
2015-Jun-21 02:33N 33°02' W 118°01'1212.4
2015-Jun-21 01:33N 33°14' W 118°07'2 2.4
2015-Jun-21 00:33N 33°16' W 118°08'7 7.0
2015-Jun-20 23:34N 33°23' W 118°08'1211.6
2015-Jun-20 22:33N 33°34' W 118°13'10 9.7
2015-Jun-20 21:34N 33°43' W 118°16'3 2.5
2015-Jun-20 20:31N 33°46' W 118°16'0 0.0
2015-Jun-20 19:28N 33°46' W 118°16'0 0.0
2015-Jun-20 18:31N 33°46' W 118°16'0 0.0
2015-Jun-20 17:31N 33°46' W 118°16'0 0.0
2015-Jun-20 16:31N 33°46' W 118°16'0 0.0
2015-Jun-20 15:31N 33°46' W 118°16'0 0.0
2015-Jun-20 14:31N 33°46' W 118°16'0 0.0
2015-Jun-20 13:31N 33°46' W 118°16'0 0.0
2015-Jun-20 12:31N 33°46' W 118°16'0 0.0
2015-Jun-20 11:31N 33°46' W 118°16'0 0.0
2015-Jun-20 10:31N 33°46' W 118°16'0 0.0
2015-Jun-20 09:31N 33°46' W 118°16'0 0.0
2015-Jun-20 08:31N 33°46' W 118°16'0 0.0
2015-Jun-20 07:31N 33°46' W 118°16'0 0.0
2015-Jun-20 06:31N 33°46' W 118°16'0 0.0
2015-Jun-20 05:28N 33°46' W 118°16'0 0.0
2015-Jun-20 04:28N 33°46' W 118°16'0 0.0
2015-Jun-20 03:28N 33°46' W 118°16'0 0.0
2015-Jun-20 02:31N 33°46' W 118°16'0 0.0
2015-Jun-20 01:31N 33°46' W 118°16'0 0.0
2015-Jun-20 00:31N 33°46' W 118°16'0 0.0
2015-Jun-19 23:31N 33°46' W 118°16'0 0.0
2015-Jun-19 22:31N 33°46' W 118°16'0 0.0
2015-Jun-19 21:31N 33°46' W 118°16'0 0.0
2015-Jun-19 20:31N 33°46' W 118°16'0 0.0
2015-Jun-19 19:31N 33°46' W 118°16'0 0.0
2015-Jun-19 18:31N 33°46' W 118°16'0 0.0
2015-Jun-19 17:31N 33°46' W 118°16'0 0.0
2015-Jun-19 16:31N 33°46' W 118°16'0 0.0
2015-Jun-19 15:31N 33°46' W 118°16'0 0.0
2015-Jun-19 14:31N 33°46' W 118°16'0 0.0
2015-Jun-19 13:31N 33°46' W 118°16'0 0.0
2015-Jun-19 12:31N 33°46' W 118°16'0 0.0
2015-Jun-19 11:31N 33°46' W 118°16'0 0.0
2015-Jun-19 10:19N 33°46' W 118°16'0 0.0
2015-Jun-19 09:28N 33°46' W 118°16'0 0.0
2015-Jun-19 08:31N 33°46' W 118°16'0 0.0
2015-Jun-19 07:28N 33°46' W 118°16'0 0.0
2015-Jun-19 06:25N 33°46' W 118°16'0 0.0
2015-Jun-19 05:28N 33°46' W 118°16'0 0.0
2015-Jun-19 04:28N 33°46' W 118°16'0 0.0
2015-Jun-19 03:31N 33°46' W 118°16'0 0.0
2015-Jun-19 02:25N 33°46' W 118°16'0 0.0
2015-Jun-19 01:28N 33°46' W 118°16'0 0.0
2015-Jun-19 00:31N 33°46' W 118°16'0 0.0
2015-Jun-18 23:31N 33°46' W 118°16'0 0.0
2015-Jun-18 22:31N 33°46' W 118°16'1 0.8
2015-Jun-18 21:33N 33°45' W 118°16'6 5.7
2015-Jun-18 20:33N 33°40' W 118°14'5 5.2
2015-Jun-18 19:33N 33°36' W 118°10'6 5.8
2015-Jun-18 18:33N 33°30' W 118°07'6 6.0
2015-Jun-18 17:33N 33°25' W 118°05'6 6.2
2015-Jun-18 16:34N 33°19' W 118°02'7 6.5
2015-Jun-18 15:33N 33°13' W 118°06'1010.2
2015-Jun-18 14:34N 33°12' W 118°18'1110.7
2015-Jun-18 13:30N 33°11' W 118°32'1010.3
2015-Jun-18 12:31N 33°10' W 118°44'1313.7
2015-Jun-18 11:33N 33°09' W 118°60'1413.7
2015-Jun-18 10:33N 33°08' W 119°16'1413.7
2015-Jun-18 09:33N 33°07' W 119°32'1513.3
2015-Jun-18 08:25N 33°06' W 119°50'1213.3
2015-Jun-18 07:32N 33°05' W 120°04'1313.3
2015-Jun-18 06:33N 33°04' W 120°20'1313.5
2015-Jun-18 05:33N 33°03' W 120°36'1413.8
2015-Jun-18 04:33N 33°03' W 120°52'1413.9
2015-Jun-18 03:33N 33°04' W 121°09'1413.9
2015-Jun-18 02:34N 33°06' W 121°25'1312.9
2015-Jun-18 01:33N 33°03' W 121°40'1312.9
2015-Jun-18 00:33N 32°56' W 121°53'1312.8
2015-Jun-17 23:33N 32°49' W 122°06'1212.4
2015-Jun-17 22:33N 32°51' W 122°20'1514.6
2015-Jun-17 21:34N 32°59' W 122°35'1514.8
2015-Jun-17 20:34N 33°07' W 122°50'1514.8
2015-Jun-17 19:34N 33°15' W 123°05'1514.5
2015-Jun-17 18:33N 33°21' W 123°21'1515.1
2015-Jun-17 17:34N 33°26' W 123°37'1615.3
2015-Jun-17 16:32N 33°30' W 123°55'1515.2
2015-Jun-17 15:33N 33°35' W 124°12'1714.5
2015-Jun-17 14:24N 33°37' W 124°32'1214.6
2015-Jun-17 13:33N 33°36' W 124°47'1414.1
2015-Jun-17 12:34N 33°34' W 125°04'1413.8
2015-Jun-17 11:33N 33°32' W 125°20'1413.7
2015-Jun-17 10:33N 33°31' W 125°37'1413.5
2015-Jun-17 09:33N 33°29' W 125°53'1413.4
2015-Jun-17 08:31N 33°27' W 126°09'2613.3
2015-Jun-17 06:33N 33°25' W 126°41'1713.7
2015-Jun-17 05:18N 33°27' W 127°01'5712.0
2015-Jun-17 00:34N 33°32' W 128°09'7313.8
2015-Jun-16 19:15N 33°39' W 129°36'2414.0
2015-Jun-16 17:33N 33°41' W 130°05'1413.8
2015-Jun-16 16:33N 33°42' W 130°21'13213.9
2015-Jun-16 07:00N 33°54' W 133°00'10514.0 070 / 181021.010.8 1.017.0 18.0
2015-Jun-15 23:30N 34°04' W 135°06'6013.3
2015-Jun-15 19:00N 34°06' W 136°18'24412.8 070 / 151021.010.8 0.518.0 18.0
2015-Jun-15 00:00N 34°30' W 141°12'   090 / 171020.0 5.4 2.519.0 19.0
2015-Jun-12 18:00N 34°06' W 153°18'   080 / 121020.010.8 0.518.0 18.0

Dump ship's entire track history